American Falls, ID

6:29 AM MST on November 27, 2014 (GMT -0700)
Pocatello Regional | Change Station
CLOSE
Current Station
Airport
Location: Pocatello,
Elevation: 4478 ft
Nearby Weather Stations

Elev 4478 ft 42.92 °N, 112.57 °W | Updated 36 minutes ago

Clear
Clear
51 °F
Feels Like 51 °F
N
7
Wind Variable Wind from South

Today
High -- | Low -- °F
--% Chance of Precip.
Yesterday
High -- | Low -- °F
Precip. -- in
7:38 AM 5:00 PM
Waxing Crescent, 29% visible
Pressure 30.15 in
Visibility 10.0 miles
Clouds Clear
Dew Point 26 °F
Humidity 38%
Rainfall 0.00 in
Snow Depth Not available.
UV 0 out of 12
Pollen 1.10 out of 12
Air Quality Not available.
Flu Activity Not available.
METAR KPIH 271253Z 18006KT 10SM CLR 11/M03 A3018 RMK AO2 SLP208 T01061033

More Conditions Fewer Conditions

Pressure 30.15 in
Visibility 10.0 miles
Clouds Clear
Dew Point 26 °F
Humidity 38%
Rainfall 0.00 in
Snow Depth Not available.
UV 0 out of 12
Pollen 1.10 out of 12
Air Quality Not available.
Flu Activity Not available.
METAR KPIH 271253Z 18006KT 10SM CLR 11/M03 A3018 RMK AO2 SLP208 T01061033

More Conditions Fewer Conditions

10-Day Weather Forecast

Almanac

Astronomy

Nov. 27, 2014 Rise Set
Actual Time
Civil Twilight
Nautical Twilight
Astronomical Twilight
Moon
Length of Visible Light
Length of Day
Tomorrow will be .
, % of the Moon is Illuminated

Today's Extremes

State Highs State Lows

Community

WunderPhotos

Upload Photos

1,773,995 photos uploaded!

WunderBlogs® & News

Nearby

Air Quality

  Air Quality AQ Index Pollutant
Not available.

Snow Depth

Station Depth Elevation

Earthquake Activity

City Distance Mag. Time & Date
Minimum magnitude displayed is 2.5.

Coastal Water Temperatures

Place Temperature

Nearby Weather Stations